Time;durP1;ratioP1;P1;durP2;ratioP2;P2;SDS_P1;SDS_P2;PMS_P1;PMS_P2;Temp;Humidity;BMP_temperature;BMP_pressure;BME280_temperature;BME280_humidity;BME280_pressure;Samples;Min_cycle;Max_cycle;Signal;HPM_P1;HPM_P2
2022/06/30 00:00:49;;;;;;;0.35;0.35;;;20.30;99.90;;;20.44;100.00;100043.31;4986398;28;20197;-67
2022/06/30 00:03:17;;;;;;;0.20;0.20;;;20.30;99.90;;;20.37;100.00;100043.56;4954626;28;20216;-67
2022/06/30 00:05:45;;;;;;;0.30;0.30;;;20.30;99.90;;;20.27;100.00;100052.91;4970487;28;20227;-67
2022/06/30 00:08:13;;;;;;;0.50;0.50;;;20.30;99.90;;;20.03;100.00;100055.56;4983129;28;20229;-68
2022/06/30 00:10:41;;;;;;;0.50;0.50;;;20.20;99.90;;;19.85;100.00;100064.25;4956612;28;20227;-67
2022/06/30 00:13:09;;;;;;;0.50;0.50;;;20.00;99.90;;;19.95;100.00;100068.38;4986394;28;20688;-67
2022/06/30 00:15:37;;;;;;;0.30;0.30;;;20.00;99.90;;;19.90;100.00;100070.34;4939044;28;20209;-67
2022/06/30 00:18:05;;;;;;;0.45;0.45;;;19.90;99.90;;;19.81;100.00;100076.91;4969092;28;20235;-68
2022/06/30 00:20:33;;;;;;;0.38;0.38;;;19.90;99.90;;;19.75;100.00;100078.91;4979361;28;20215;-67
2022/06/30 00:23:01;;;;;;;0.40;0.40;;;19.80;99.90;;;19.83;100.00;100081.34;4975548;28;20220;-67
2022/06/30 00:25:29;;;;;;;0.50;0.50;;;19.80;99.90;;;19.74;100.00;100088.78;4975946;28;20205;-67
2022/06/30 00:27:57;;;;;;;0.60;0.60;;;19.80;99.90;;;19.66;100.00;100090.84;4986854;28;20224;-68
2022/06/30 00:30:26;;;;;;;0.45;0.45;;;19.70;99.90;;;19.56;100.00;100108.16;4978140;28;20201;-67
2022/06/30 00:32:54;;;;;;;0.50;0.50;;;19.70;99.90;;;19.52;100.00;100119.00;4957649;28;20204;-67
2022/06/30 00:35:22;;;;;;;0.50;0.50;;;19.60;99.90;;;19.55;100.00;100129.66;4968863;28;20228;-68
2022/06/30 00:37:50;;;;;;;0.30;0.30;;;19.60;99.90;;;19.53;100.00;100127.03;4987022;28;20251;-67
2022/06/30 00:40:18;;;;;;;0.60;0.60;;;19.60;99.90;;;19.62;100.00;100132.09;4993463;28;20200;-67
2022/06/30 00:42:45;;;;;;;0.50;0.50;;;19.60;99.90;;;19.67;100.00;100132.81;4967512;28;20231;-67
2022/06/30 00:45:14;;;;;;;0.70;0.70;;;19.60;99.90;;;19.64;100.00;100134.72;4986382;28;20197;-67
2022/06/30 00:47:41;;;;;;;0.50;0.50;;;19.60;99.90;;;19.67;100.00;100146.25;4972895;28;20236;-68
2022/06/30 00:50:09;;;;;;;0.45;0.45;;;19.50;99.90;;;19.70;100.00;100148.81;4975123;28;20212;-67
2022/06/30 00:52:38;;;;;;;0.65;0.65;;;19.60;99.90;;;19.54;100.00;100155.63;4987114;28;20247;-67
2022/06/30 00:55:06;;;;;;;0.50;0.50;;;19.50;99.90;;;19.48;100.00;100159.31;4970300;28;20200;-67
2022/06/30 00:57:37;;;;;;;0.60;0.60;;;19.50;99.90;;;19.41;100.00;100156.88;4965505;28;20244;-67
2022/06/30 01:00:06;;;;;;;0.50;0.50;;;19.40;99.90;;;19.41;100.00;100164.91;4975321;28;20211;-67
2022/06/30 01:02:36;;;;;;;0.70;0.70;;;19.40;99.90;;;19.23;100.00;100165.47;4990130;28;20224;-67
2022/06/30 01:05:05;;;;;;;0.70;0.70;;;19.20;99.90;;;19.30;100.00;100169.72;4992082;28;20219;-68
2022/06/30 01:07:34;;;;;;;0.85;0.60;;;19.20;99.90;;;19.30;100.00;100170.59;4957032;28;20215;-67
2022/06/30 01:12:48;;;;;;;1.13;1.02;;;19.20;99.90;;;19.21;100.00;100164.66;5010673;28;20236;-68
2022/06/30 01:15:20;;;;;;;0.40;0.40;;;19.10;99.90;;;19.15;100.00;100171.06;4980672;28;20614;-67
2022/06/30 01:17:50;;;;;;;0.60;0.60;;;19.10;99.90;;;19.12;100.00;100173.84;4966063;28;20244;-67
2022/06/30 01:20:27;;;;;;;0.60;0.60;;;19.10;99.90;;;19.14;100.00;100182.72;4969843;28;20209;-67
2022/06/30 01:22:57;;;;;;;0.50;0.50;;;19.10;99.90;;;19.11;100.00;100183.69;4949897;28;20224;-67
2022/06/30 01:25:26;;;;;;;0.60;0.60;;;19.10;99.90;;;19.06;100.00;100187.44;4951715;28;20555;-67
2022/06/30 01:27:55;;;;;;;0.50;0.50;;;19.10;99.90;;;18.78;100.00;100182.00;4984892;28;20696;-67
2022/06/30 01:30:23;;;;;;;0.70;0.70;;;19.00;99.90;;;18.91;100.00;100193.25;4966436;28;20213;-66
2022/06/30 01:32:52;;;;;;;0.40;0.40;;;18.90;99.90;;;18.79;100.00;100190.00;4998698;28;20213;-66
2022/06/30 01:35:20;;;;;;;0.60;0.60;;;18.90;99.90;;;18.81;100.00;100185.47;4971981;28;20209;-67
2022/06/30 01:37:58;;;;;;;0.60;0.60;;;18.80;99.90;;;18.69;100.00;100183.13;4960996;28;20228;-67
2022/06/30 01:40:30;;;;;;;0.50;0.50;;;18.80;99.90;;;18.69;100.00;100192.97;4942027;28;20222;-67
2022/06/30 01:42:58;;;;;;;0.88;0.88;;;18.80;99.90;;;18.97;100.00;100210.03;5010890;28;20213;-68
2022/06/30 01:45:26;;;;;;;0.50;0.50;;;18.80;99.90;;;19.09;100.00;100203.44;4991593;28;20204;-66
2022/06/30 01:47:55;;;;;;;0.68;0.60;;;18.80;99.90;;;19.19;100.00;100189.69;4964395;28;20220;-67
2022/06/30 01:50:29;;;;;;;0.70;0.70;;;18.90;99.90;;;19.13;100.00;100191.69;4958998;28;21638;-68
2022/06/30 01:52:58;;;;;;;0.50;0.50;;;18.90;99.90;;;18.73;100.00;100182.13;4969598;28;20211;-67
2022/06/30 01:55:27;;;;;;;0.70;0.70;;;18.90;99.90;;;18.79;100.00;100189.13;4963122;28;20216;-67
2022/06/30 01:57:55;;;;;;;0.65;0.63;;;18.80;99.90;;;18.80;100.00;100185.50;4970447;28;20228;-66
2022/06/30 02:00:26;;;;;;;0.68;0.68;;;18.80;99.90;;;18.36;100.00;100178.69;4974002;28;20204;-67
2022/06/30 02:02:55;;;;;;;0.70;0.70;;;18.70;99.90;;;18.23;100.00;100188.84;4971570;28;20232;-67
2022/06/30 02:05:25;;;;;;;0.50;0.50;;;18.50;99.90;;;18.26;100.00;100182.53;4971494;28;20196;-66
2022/06/30 02:07:53;;;;;;;0.75;0.75;;;18.40;99.90;;;18.40;100.00;100196.41;4983831;28;20586;-67
2022/06/30 02:10:24;;;;;;;0.90;0.80;;;18.30;99.90;;;18.48;100.00;100191.72;4957245;28;20201;-67
2022/06/30 02:12:52;;;;;;;0.88;0.80;;;18.40;99.90;;;18.48;100.00;100192.63;4988011;28;20208;-67
2022/06/30 02:15:36;;;;;;;1.13;0.93;;;18.30;99.90;;;18.35;100.00;100191.19;4969790;28;20219;-67
2022/06/30 02:18:07;;;;;;;0.80;0.70;;;18.40;99.90;;;18.30;100.00;100192.22;4979921;28;20235;-66
2022/06/30 02:20:36;;;;;;;0.70;0.65;;;18.30;99.90;;;18.31;100.00;100196.66;4987505;28;20205;-67
2022/06/30 02:23:05;;;;;;;0.65;0.60;;;18.30;99.90;;;18.27;100.00;100205.69;5004699;28;20216;-66
2022/06/30 02:25:33;;;;;;;0.70;0.65;;;18.30;99.90;;;18.17;100.00;100197.88;4977894;28;20211;-67
2022/06/30 02:28:04;;;;;;;0.90;0.80;;;18.20;99.90;;;18.11;100.00;100207.84;5009700;28;20704;-67
2022/06/30 02:30:33;;;;;;;1.00;0.90;;;18.20;99.90;;;18.08;100.00;100203.44;4965108;28;20200;-67
2022/06/30 02:33:02;;;;;;;1.00;0.90;;;18.10;99.90;;;17.99;100.00;100213.50;4978371;28;20219;-66
2022/06/30 02:35:30;;;;;;;1.10;0.90;;;18.10;99.90;;;17.85;100.00;100201.34;4988105;28;20212;-67
2022/06/30 02:37:58;;;;;;;1.08;0.90;;;18.00;99.90;;;17.89;100.00;100213.75;5002879;28;20228;-67
2022/06/30 02:40:26;;;;;;;0.70;0.70;;;17.90;99.90;;;18.02;100.00;100203.59;4973331;28;20209;-67
2022/06/30 02:42:58;;;;;;;1.02;0.93;;;17.90;99.90;;;18.02;100.00;100197.38;4954072;28;20228;-67
2022/06/30 02:45:26;;;;;;;0.60;0.60;;;18.00;99.90;;;17.91;100.00;100194.97;4974135;28;20205;-68
2022/06/30 02:47:55;;;;;;;1.10;1.00;;;17.90;99.90;;;17.99;100.00;100217.06;4997214;28;20227;-66
2022/06/30 02:50:24;;;;;;;0.70;0.70;;;17.90;99.90;;;18.04;100.00;100222.31;4985310;28;20212;-67
2022/06/30 02:52:52;;;;;;;0.75;0.75;;;17.90;99.90;;;17.99;100.00;100221.53;4985428;28;20204;-67
2022/06/30 02:55:21;;;;;;;1.40;1.20;;;17.90;99.90;;;17.96;100.00;100229.63;4972283;28;20200;-68
2022/06/30 02:57:49;;;;;;;0.80;0.70;;;17.90;99.90;;;17.89;100.00;100237.81;4957819;28;20244;-67
2022/06/30 03:00:17;;;;;;;1.00;0.90;;;17.90;99.90;;;17.87;100.00;100239.66;4974847;28;20208;-67
2022/06/30 03:02:46;;;;;;;0.75;0.70;;;17.80;99.90;;;17.88;100.00;100240.53;4957095;28;20223;-66
2022/06/30 03:05:14;;;;;;;1.75;1.42;;;17.80;99.90;;;17.87;100.00;100244.13;4954727;28;20236;-67
2022/06/30 03:07:42;;;;;;;0.50;0.50;;;17.80;99.90;;;17.82;100.00;100248.69;5004862;28;20235;-66
2022/06/30 03:10:10;;;;;;;1.30;1.00;;;17.80;99.90;;;17.71;100.00;100243.59;4958295;28;20216;-67
2022/06/30 03:12:43;;;;;;;0.60;0.60;;;17.80;99.90;;;17.69;100.00;100247.22;4985038;28;20204;-66
2022/06/30 03:15:18;;;;;;;1.05;0.85;;;17.70;99.90;;;17.77;100.00;100248.81;4970243;28;20205;-67
2022/06/30 03:17:46;;;;;;;0.63;0.63;;;17.70;99.90;;;17.75;100.00;100252.44;4971199;28;20236;-67
2022/06/30 03:20:14;;;;;;;1.02;0.93;;;17.70;99.90;;;17.67;100.00;100255.28;4973310;28;20681;-66
2022/06/30 03:22:42;;;;;;;1.33;1.10;;;17.70;99.90;;;17.80;100.00;100258.56;5005004;28;20210;-66
2022/06/30 03:25:10;;;;;;;1.58;1.17;;;17.70;99.90;;;17.84;100.00;100262.91;4953381;28;20220;-67
2022/06/30 03:27:38;;;;;;;1.65;1.23;;;17.70;99.90;;;17.85;100.00;100264.69;4978074;28;20226;-67
2022/06/30 03:30:07;;;;;;;0.30;0.30;;;17.70;99.90;;;17.87;100.00;100263.72;4953962;28;20652;-66
2022/06/30 03:32:35;;;;;;;1.10;0.98;;;17.80;99.90;;;17.71;100.00;100254.28;4967123;28;20217;-67
2022/06/30 03:35:03;;;;;;;1.20;1.00;;;17.70;99.90;;;17.76;100.00;100256.88;4995428;28;20215;-67
2022/06/30 03:37:32;;;;;;;1.23;0.85;;;17.70;99.90;;;17.78;100.00;100258.59;4975905;28;20204;-67
2022/06/30 03:40:00;;;;;;;1.23;1.00;;;17.70;99.90;;;17.59;100.00;100262.56;4976204;28;20196;-67
2022/06/30 03:42:28;;;;;;;2.00;1.35;;;17.60;99.90;;;17.50;100.00;100269.00;4999094;28;20573;-67
2022/06/30 03:44:55;;;;;;;1.75;1.33;;;17.50;99.90;;;17.51;100.00;100273.44;4945030;28;20235;-69
2022/06/30 03:47:23;;;;;;;1.48;0.98;;;17.50;99.90;;;17.45;100.00;100265.53;4990907;28;20204;-68
2022/06/30 03:49:51;;;;;;;1.30;0.90;;;17.50;99.90;;;17.41;100.00;100271.88;4992877;28;20865;-67
2022/06/30 03:52:19;;;;;;;2.03;1.35;;;17.40;99.90;;;17.45;100.00;100276.25;4994021;28;20209;-68
2022/06/30 03:54:47;;;;;;;3.53;2.30;;;17.40;99.90;;;17.27;100.00;100264.13;4968699;28;20208;-67
2022/06/30 03:57:15;;;;;;;3.10;2.08;;;17.40;99.90;;;17.32;100.00;100288.09;4959491;28;20217;-67
2022/06/30 03:59:43;;;;;;;5.80;3.10;;;17.30;99.90;;;17.40;100.00;100293.28;4990751;28;20207;-67
2022/06/30 04:02:11;;;;;;;2.45;1.55;;;17.40;99.90;;;17.39;100.00;100299.53;4941975;28;20204;-67
2022/06/30 04:04:39;;;;;;;3.58;2.38;;;17.30;99.90;;;17.42;100.00;100296.81;4983781;28;20224;-67
2022/06/30 04:07:07;;;;;;;3.22;1.90;;;17.30;99.90;;;17.38;100.00;100303.13;4956042;28;20297;-68
2022/06/30 04:09:35;;;;;;;3.22;2.05;;;17.30;99.90;;;17.47;100.00;100306.50;4990301;28;20220;-67
2022/06/30 04:12:10;;;;;;;2.40;1.60;;;17.40;99.90;;;17.34;100.00;100304.09;5002053;28;20200;-67
2022/06/30 04:14:39;;;;;;;0.73;0.65;;;17.40;99.90;;;17.48;100.00;100307.38;4973465;28;20208;-67
2022/06/30 04:17:07;;;;;;;2.75;2.35;;;17.30;99.90;;;17.56;100.00;100310.75;4974639;28;20220;-67
2022/06/30 04:19:37;;;;;;;2.05;1.45;;;17.40;99.90;;;17.54;100.00;100313.47;4974653;28;20224;-65
2022/06/30 04:22:05;;;;;;;1.52;1.20;;;17.40;99.90;;;17.55;100.00;100315.22;4972273;28;20212;-66
2022/06/30 04:24:34;;;;;;;1.25;1.00;;;17.40;99.90;;;17.54;100.00;100315.25;4976353;28;20220;-65
2022/06/30 04:27:02;;;;;;;1.23;0.93;;;17.40;99.90;;;17.63;100.00;100328.44;4979882;28;20196;-65
2022/06/30 04:29:30;;;;;;;1.08;0.80;;;17.40;99.90;;;17.63;100.00;100332.91;4967699;28;20221;-67
2022/06/30 04:34:44;;;;;;;1.55;1.10;;;17.50;99.90;;;17.59;100.00;100338.31;5017137;28;20223;-67
2022/06/30 04:37:12;;;;;;;1.42;1.00;;;17.50;99.90;;;17.71;100.00;100341.69;4969638;28;20211;-67
2022/06/30 04:39:40;;;;;;;1.52;1.23;;;17.50;99.90;;;17.74;100.00;100352.31;4973555;28;20582;-67
2022/06/30 04:42:08;;;;;;;1.95;1.38;;;17.50;99.90;;;17.81;100.00;100346.78;4971943;28;20219;-68
2022/06/30 04:44:36;;;;;;;1.42;1.10;;;17.60;99.90;;;17.84;100.00;100356.53;4986164;28;20232;-69
2022/06/30 04:47:04;;;;;;;1.23;0.93;;;17.60;99.90;;;17.97;100.00;100366.06;4955194;28;20228;-68
2022/06/30 04:49:32;;;;;;;1.40;1.08;;;17.70;99.90;;;18.14;100.00;100363.88;4969566;28;20236;-68
2022/06/30 04:51:59;;;;;;;1.58;1.20;;;17.80;99.90;;;18.28;100.00;100363.59;4966212;28;20211;-68
2022/06/30 04:54:27;;;;;;;1.25;0.90;;;17.90;99.90;;;18.30;100.00;100356.41;4965170;28;20362;-67
2022/06/30 04:56:55;;;;;;;1.63;1.10;;;18.00;99.90;;;18.33;100.00;100339.38;4959907;28;20208;-67
2022/06/30 04:59:23;;;;;;;1.48;1.10;;;18.00;99.90;;;18.43;100.00;100344.47;4955789;28;20220;-67
2022/06/30 05:01:51;;;;;;;1.45;1.15;;;18.10;99.90;;;18.54;100.00;100341.53;4979221;28;20215;-68
2022/06/30 05:04:19;;;;;;;1.48;1.15;;;18.10;99.90;;;18.63;100.00;100335.09;4971764;28;20684;-68
2022/06/30 05:06:47;;;;;;;1.00;0.90;;;18.20;99.90;;;18.67;100.00;100340.34;4992191;28;20205;-67
2022/06/30 05:09:15;;;;;;;1.77;1.30;;;18.30;99.90;;;18.74;100.00;100333.03;4994103;28;20228;-68
2022/06/30 05:11:43;;;;;;;1.10;0.80;;;18.30;99.90;;;18.81;100.00;100318.53;4966895;28;20212;-67
2022/06/30 05:14:11;;;;;;;1.42;1.02;;;18.40;99.90;;;18.86;100.00;100319.31;5017393;28;20208;-67
2022/06/30 05:16:39;;;;;;;1.50;1.10;;;18.50;99.90;;;18.95;100.00;100311.03;4934129;28;20197;-67
2022/06/30 05:19:07;;;;;;;1.13;0.82;;;18.50;99.90;;;19.03;100.00;100300.97;5003264;28;20259;-67
2022/06/30 05:21:34;;;;;;;1.95;1.33;;;18.60;99.90;;;19.21;100.00;100301.38;4965511;28;20205;-68
2022/06/30 05:26:50;;;;;;;1.85;1.23;;;18.80;99.90;;;19.32;100.00;100289.41;4983705;28;20579;-68
2022/06/30 05:29:17;;;;;;;2.33;1.38;;;18.90;99.90;;;19.38;100.00;100291.03;4969687;28;20225;-67
2022/06/30 05:31:45;;;;;;;0.10;0.10;;;18.90;99.90;;;19.47;100.00;100288.97;4970467;28;20208;-67
2022/06/30 05:34:13;;;;;;;0.10;0.10;;;19.00;99.90;;;19.61;100.00;100302.03;4967270;28;20208;-68
2022/06/30 05:36:41;;;;;;;0.10;0.10;;;19.10;99.90;;;19.50;100.00;100298.72;4949720;28;20215;-65
2022/06/30 05:39:09;;;;;;;0.00;0.00;;;19.10;99.90;;;19.58;100.00;100290.50;4944684;28;20240;-65
2022/06/30 05:41:37;;;;;;;0.25;0.25;;;19.20;99.90;;;19.76;100.00;100301.56;4970613;28;20200;-64
2022/06/30 05:44:05;;;;;;;0.32;0.32;;;19.30;99.90;;;19.88;100.00;100281.53;4976625;28;20205;-67
2022/06/30 05:46:33;;;;;;;0.73;0.73;;;19.40;99.90;;;20.01;100.00;100277.50;4983061;28;20235;-65
2022/06/30 05:49:02;;;;;;;0.10;0.10;;;19.50;99.90;;;20.25;100.00;100275.84;4960044;28;20255;-66
2022/06/30 05:51:30;;;;;;;0.80;0.80;;;19.70;99.90;;;20.45;100.00;100267.13;4958688;28;20209;-65
2022/06/30 05:53:58;;;;;;;0.00;0.00;;;19.90;99.90;;;20.51;100.00;100261.56;4964613;28;20204;-66
2022/06/30 05:56:26;;;;;;;0.10;0.10;;;20.00;99.90;;;20.62;100.00;100255.81;4970316;28;20688;-65
2022/06/30 05:58:54;;;;;;;0.10;0.10;;;20.10;99.90;;;20.71;100.00;100251.00;4985649;28;20228;-65
2022/06/30 06:01:22;;;;;;;0.10;0.10;;;20.20;99.90;;;20.82;100.00;100239.00;4955028;28;20213;-64
2022/06/30 06:03:50;;;;;;;0.10;0.10;;;20.40;99.90;;;21.01;100.00;100254.41;4969023;28;20204;-65
2022/06/30 06:06:18;;;;;;;0.08;0.08;;;20.60;99.90;;;20.93;100.00;100245.75;4972662;28;20224;-65
2022/06/30 06:08:46;;;;;;;0.08;0.08;;;20.70;99.90;;;21.05;100.00;100265.94;4949775;28;20224;-65
2022/06/30 06:11:14;;;;;;;0.20;0.20;;;20.80;99.90;;;21.36;100.00;100280.03;4973402;28;20205;-66
2022/06/30 06:13:42;;;;;;;0.05;0.05;;;20.90;99.90;;;21.46;100.00;100252.78;4958087;28;20213;-65
2022/06/30 06:16:10;;;;;;;0.10;0.10;;;21.10;99.90;;;21.57;100.00;100250.53;4958333;28;20217;-65
2022/06/30 06:18:38;;;;;;;0.10;0.10;;;21.10;99.90;;;21.66;100.00;100232.22;4973229;28;20243;-67
2022/06/30 06:21:06;;;;;;;0.08;0.08;;;21.30;99.90;;;21.96;100.00;100232.81;4974345;28;20221;-67
2022/06/30 06:23:49;;;;;;;0.22;0.22;;;21.50;99.90;;;21.94;100.00;100234.69;4955323;28;20219;-67
2022/06/30 06:26:17;;;;;;;0.10;0.10;;;21.70;99.90;;;21.94;100.00;100229.28;4957160;28;20236;-67
2022/06/30 06:31:39;;;;;;;0.05;0.05;;;21.90;99.90;;;22.33;100.00;100245.69;4956090;28;20212;-66
2022/06/30 06:34:08;;;;;;;0.00;0.00;;;22.20;99.90;;;22.24;100.00;100216.44;4993966;28;20213;-66
2022/06/30 06:36:36;;;;;;;0.00;0.00;;;22.20;99.90;;;22.50;100.00;100234.19;4953136;28;20220;-66
2022/06/30 06:39:05;;;;;;;7.43;1.20;;;22.40;99.90;;;22.67;100.00;100237.03;4926516;28;20235;-65
2022/06/30 06:41:33;;;;;;;0.00;0.00;;;22.50;99.90;;;22.85;100.00;100231.78;4934389;28;20217;-65
2022/06/30 06:44:02;;;;;;;0.00;0.00;;;22.80;99.90;;;22.99;100.00;100243.72;4988276;28;20297;-67
2022/06/30 06:46:32;;;;;;;0.00;0.00;;;22.90;99.90;;;23.14;100.00;100230.47;4943475;28;20258;-68
2022/06/30 06:49:06;;;;;;;0.00;0.00;;;22.90;99.90;;;23.23;100.00;100220.13;4946026;28;20240;-67
2022/06/30 06:51:35;;;;;;;0.00;0.00;;;23.00;99.90;;;23.23;100.00;100212.03;4946344;28;20290;-66
2022/06/30 06:54:04;;;;;;;0.00;0.00;;;23.10;99.90;;;23.49;100.00;100209.97;4959076;28;20212;-68
2022/06/30 06:56:32;;;;;;;0.20;0.20;;;23.20;99.90;;;23.36;100.00;100165.59;4989023;28;20211;-68
2022/06/30 06:59:00;;;;;;;0.08;0.08;;;23.30;99.90;;;23.64;100.00;100190.38;4992323;28;20236;-66
2022/06/30 07:01:29;;;;;;;0.00;0.00;;;23.60;99.90;;;23.62;100.00;100181.47;4995552;28;20211;-65
2022/06/30 07:03:57;;;;;;;0.10;0.10;;;23.60;99.90;;;23.81;100.00;100166.09;4989055;28;20219;-66
2022/06/30 07:06:25;;;;;;;0.10;0.10;;;23.80;99.90;;;23.99;100.00;100158.03;4976505;28;20219;-67
2022/06/30 07:08:53;;;;;;;0.00;0.00;;;23.90;99.90;;;24.03;100.00;100143.41;4958702;28;20243;-66
2022/06/30 07:11:21;;;;;;;0.20;0.20;;;24.10;99.90;;;24.73;100.00;100161.41;4976388;28;20204;-67
2022/06/30 07:13:49;;;;;;;0.10;0.10;;;24.50;99.90;;;24.55;100.00;100103.75;4960453;28;20571;-66
2022/06/30 07:16:17;;;;;;;0.00;0.00;;;24.60;99.90;;;24.45;100.00;100079.06;4981530;28;20207;-68
2022/06/30 07:18:45;;;;;;;0.00;0.00;;;24.80;99.90;;;24.54;100.00;100107.41;4979294;28;20715;-66
2022/06/30 07:21:15;;;;;;;0.05;0.05;;;24.90;99.90;;;24.79;100.00;100118.69;4990649;28;20215;-68
2022/06/30 07:23:43;;;;;;;0.00;0.00;;;25.00;99.90;;;24.99;100.00;100103.22;4970071;28;20219;-67
2022/06/30 07:26:11;;;;;;;0.25;0.25;;;25.20;99.90;;;24.90;100.00;100077.53;5003244;28;20232;-66
2022/06/30 07:28:40;;;;;;;0.05;0.05;;;25.30;99.90;;;25.32;100.00;100084.22;4955974;28;20679;-66
2022/06/30 07:31:20;;;;;;;0.10;0.10;;;25.60;99.90;;;25.60;100.00;100083.47;4989648;28;20209;-66
2022/06/30 07:33:49;;;;;;;0.00;0.00;;;25.90;99.90;;;26.51;100.00;100109.69;4988820;28;20214;-68
2022/06/30 07:36:17;;;;;;;0.10;0.10;;;26.20;99.90;;;25.63;100.00;99978.56;4984805;28;20207;-67
2022/06/30 07:38:47;;;;;;;0.00;0.00;;;26.40;99.90;;;25.27;100.00;99962.69;4963099;28;20239;-68
2022/06/30 07:41:15;;;;;;;0.10;0.10;;;26.30;99.90;;;26.47;100.00;100100.88;4975783;28;20212;-67
2022/06/30 07:43:43;;;;;;;0.20;0.20;;;26.50;99.90;;;25.89;100.00;99997.81;4978575;28;20311;-68
2022/06/30 07:46:12;;;;;;;0.00;0.00;;;26.70;99.90;;;25.87;100.00;99997.03;4987843;28;20251;-69
2022/06/30 07:48:40;;;;;;;0.00;0.00;;;26.50;99.90;;;26.05;100.00;99969.72;4970091;28;20235;-67
2022/06/30 07:51:09;;;;;;;0.10;0.10;;;26.70;99.90;;;26.03;100.00;99951.81;4951588;28;20203;-68
2022/06/30 07:53:37;;;;;;;0.10;0.10;;;26.80;99.90;;;26.50;100.00;99985.91;4990795;28;20247;-69
2022/06/30 07:56:05;;;;;;;0.00;0.00;;;27.10;99.90;;;26.78;100.00;99986.75;4991258;28;20200;-66
2022/06/30 07:58:33;;;;;;;0.03;0.03;;;27.50;99.90;;;26.69;97.66;99924.09;4990557;28;20705;-66
2022/06/30 08:01:01;;;;;;;0.00;0.00;;;27.70;99.90;;;26.29;98.25;99890.53;4954359;28;20818;-66
2022/06/30 08:03:31;;;;;;;0.00;0.00;;;27.50;99.90;;;26.91;97.58;99931.69;4976580;28;20214;-69
2022/06/30 08:05:59;;;;;;;0.00;0.00;;;27.90;99.90;;;26.71;95.24;99855.19;4974197;28;20247;-65
2022/06/30 08:08:27;;;;;;;0.00;0.00;;;27.90;99.90;;;26.96;97.80;99911.41;4992416;28;20232;-66
2022/06/30 08:10:55;;;;;;;0.00;0.00;;;28.00;99.90;;;27.24;94.73;99893.28;4952344;28;20204;-69
2022/06/30 08:13:25;;;;;;;0.47;0.47;;;28.30;99.90;;;27.69;93.85;99879.28;4973287;28;20664;-68
2022/06/30 08:15:53;;;;;;;0.00;0.00;;;28.80;99.90;;;27.69;91.51;99845.81;4986572;28;20207;-69
2022/06/30 08:18:22;;;;;;;0.00;0.00;;;28.90;99.90;;;28.02;92.12;99877.88;4981667;28;20236;-67
2022/06/30 08:20:50;;;;;;;0.10;0.10;;;29.00;99.90;;;27.61;93.22;99837.34;5000757;28;20211;-67
2022/06/30 08:23:18;;;;;;;0.00;0.00;;;29.00;99.90;;;28.14;94.18;99898.72;4950043;28;20223;-69
2022/06/30 08:25:46;;;;;;;0.00;0.00;;;29.30;99.90;;;28.72;89.45;99856.41;4971134;28;20223;-69
2022/06/30 08:28:14;;;;;;;0.00;0.00;;;29.80;99.90;;;27.59;90.13;99707.03;4959309;28;20702;-69
2022/06/30 08:30:42;;;;;;;0.00;0.00;;;29.40;99.90;;;28.24;93.08;99836.44;4990030;28;20212;-69
2022/06/30 08:33:10;;;;;;;0.00;0.00;;;29.20;99.90;;;28.32;86.99;99749.72;4982066;28;20226;-69
2022/06/30 08:35:38;;;;;;;0.00;0.00;;;29.60;99.90;;;29.44;85.77;99838.19;4980248;28;20211;-67
2022/06/30 08:38:28;;;;;;;0.00;0.00;;;30.10;99.90;;;28.75;91.29;99777.28;4960084;28;20227;-68
2022/06/30 08:43:46;;;;;;;0.52;0.52;;;30.40;99.90;;;28.63;88.42;99707.47;4987255;28;20719;-67
2022/06/30 08:46:16;;;;;;;0.08;0.08;;;30.30;99.90;;;29.23;88.22;99771.75;4962134;28;20227;-69
2022/06/30 08:48:44;;;;;;;0.00;0.00;;;30.80;99.90;;;30.21;88.87;99846.59;4986607;28;20243;-70
2022/06/30 08:51:15;;;;;;;0.22;0.22;;;30.90;99.90;;;29.84;85.48;99729.59;4964830;28;20203;-66
2022/06/30 08:54:06;;;;;;;0.00;0.00;;;31.50;99.90;;;30.20;87.51;99788.47;4954260;28;20227;-69
2022/06/30 08:56:35;;;;;;;0.00;0.00;;;31.70;99.90;;;29.83;79.77;99639.75;4954027;28;20203;-67
2022/06/30 08:59:05;;;;;;;0.32;0.32;;;31.80;99.90;;;30.42;80.06;99678.41;4984867;28;20227;-69
2022/06/30 09:01:34;;;;;;;0.20;0.20;;;32.20;99.90;;;30.02;81.02;99610.03;5000161;28;20204;-70
2022/06/30 09:04:02;;;;;;;0.40;0.40;;;32.50;99.90;;;29.33;76.68;99488.66;4986973;28;20219;-67
2022/06/30 09:06:30;;;;;;;0.00;0.00;;;31.90;99.90;;;29.99;76.59;99536.66;4996546;28;20236;-69
2022/06/30 09:09:05;;;;;;;0.00;0.00;;;32.00;99.90;;;29.39;80.47;99510.81;4962354;28;20227;-67
2022/06/30 09:12:03;;;;;;;0.00;0.00;;;31.50;99.90;;;31.08;76.96;99632.63;4975483;28;20216;-67
2022/06/30 09:14:43;;;;;;;0.00;0.00;;;32.20;99.90;;;30.45;76.93;99535.41;4949469;28;20236;-68
2022/06/30 09:17:14;;;;;;;0.00;0.00;;;32.30;99.90;;;29.18;77.97;99360.97;5000860;28;20206;-67
2022/06/30 09:20:00;;;;;;;0.00;0.00;;;32.20;99.90;;;29.97;76.75;99469.63;4997100;28;20223;-69
2022/06/30 09:22:37;;;;;;;0.00;0.00;;;31.60;99.90;;;30.90;79.65;99585.13;4967468;28;20211;-69
2022/06/30 09:25:15;;;;;;;0.00;0.00;;;32.00;99.90;;;30.61;77.85;99505.81;4968142;28;20200;-67
2022/06/30 09:27:47;;;;;;;0.00;0.00;;;32.50;99.90;;;30.94;76.42;99512.00;4962675;28;20231;-67
2022/06/30 09:30:20;;;;;;;0.00;0.00;;;32.70;99.90;;;30.55;73.47;99378.94;4948089;28;20218;-69
2022/06/30 09:32:52;;;;;;;0.00;0.00;;;32.90;99.90;;;31.80;75.67;99539.59;5003524;28;20207;-66
2022/06/30 09:35:27;;;;;;;0.00;0.00;;;33.60;99.90;;;30.48;76.53;99393.28;4986679;28;20643;-67
2022/06/30 09:38:09;;;;;;;0.00;0.00;;;32.50;99.90;;;31.09;74.46;99434.13;4971604;28;20226;-69
2022/06/30 09:41:04;;;;;;;0.00;0.00;;;33.10;99.90;;;30.95;71.65;99337.13;5000772;28;20210;-66
2022/06/30 09:43:35;;;;;;;0.00;0.00;;;33.50;99.90;;;31.28;73.99;99404.19;4982024;28;20210;-67
2022/06/30 09:46:05;;;;;;;0.00;0.00;;;33.50;99.90;;;30.52;73.64;99274.69;4984838;28;20229;-68
2022/06/30 09:48:39;;;;;;;0.52;0.22;;;33.30;99.90;;;31.19;73.71;99369.50;4996854;28;20238;-68
2022/06/30 09:51:07;;;;;;;0.00;0.00;;;33.20;99.90;;;31.56;71.43;99338.75;4997082;28;20211;-69
2022/06/30 09:53:35;;;;;;;0.00;0.00;;;33.50;99.90;;;31.90;71.08;99358.25;4986187;28;20207;-70
2022/06/30 09:56:15;;;;;;;0.20;0.20;;;33.70;99.90;;;31.78;71.46;99319.31;4999236;28;20204;-69
2022/06/30 09:58:44;;;;;;;0.00;0.00;;;34.80;99.90;;;32.70;69.74;99377.72;5008495;28;20232;-69
2022/06/30 10:01:12;;;;;;;0.00;0.00;;;35.00;99.90;;;32.12;69.72;99286.78;4989452;28;20199;-66
2022/06/30 10:03:59;;;;;;;0.38;0.38;;;34.80;99.90;;;31.85;67.73;99197.41;4986222;28;20699;-66
2022/06/30 10:06:28;;;;;;;0.10;0.10;;;35.50;99.90;;;32.91;68.21;99306.25;5000320;28;20207;-67
2022/06/30 10:08:56;;;;;;;0.00;0.00;;;35.50;99.90;;;32.41;69.53;99234.69;5021510;28;20227;-70
2022/06/30 10:11:24;;;;;;;0.10;0.10;;;35.90;99.90;;;31.89;72.16;99219.84;4987166;28;20207;-65
2022/06/30 10:13:53;;;;;;;0.00;0.00;;;35.20;99.90;;;31.95;68.86;99173.59;5016111;28;20207;-66
2022/06/30 10:16:24;;;;;;;0.00;0.00;;;34.50;99.90;;;31.85;67.74;99130.94;5019988;28;20227;-68
2022/06/30 10:18:53;;;;;;;0.00;0.00;;;34.40;99.90;;;32.36;66.28;99176.81;4989348;28;20242;-68
2022/06/30 10:21:22;;;;;;;0.00;0.00;;;34.70;99.90;;;32.78;66.72;99174.38;4999634;28;20215;-65
2022/06/30 10:23:51;;;;;;;0.00;0.00;;;35.70;99.90;;;33.29;64.28;99183.66;4960781;28;20677;-68
2022/06/30 10:29:05;;;;;;;0.00;0.00;;;36.30;99.90;;;32.62;63.36;99031.88;5001057;28;20253;-66
2022/06/30 10:32:00;;;;;;;0.00;0.00;;;36.20;99.90;;;32.92;65.30;99072.47;5010771;28;20214;-68
2022/06/30 10:34:36;;;;;;;0.00;0.00;;;36.30;99.90;;;34.14;61.21;99143.50;5011955;28;20208;-69
2022/06/30 10:37:17;;;;;;;0.00;0.00;;;36.90;99.90;;;33.40;63.20;99043.66;4983865;28;20203;-66